createdAt,value
2022-10-07T00:00:56.136Z,100.00
2022-10-07T00:03:25.840Z,100.00
2022-10-07T00:06:05.216Z,100.00
2022-10-07T00:08:32.221Z,100.00
2022-10-07T00:11:04.917Z,100.00
2022-10-07T00:13:32.348Z,100.00
2022-10-07T00:16:07.828Z,100.00
2022-10-07T00:18:35.911Z,100.00
2022-10-07T00:21:08.105Z,100.00
2022-10-07T00:23:35.827Z,100.00
2022-10-07T00:26:04.342Z,100.00
2022-10-07T00:28:31.801Z,100.00
2022-10-07T00:31:10.785Z,100.00
2022-10-07T00:33:39.849Z,100.00
2022-10-07T00:36:09.847Z,100.00
2022-10-07T00:38:36.758Z,100.00
2022-10-07T00:41:04.193Z,100.00
2022-10-07T00:43:32.235Z,100.00
2022-10-07T00:46:08.287Z,100.00
2022-10-07T00:48:36.839Z,100.00
2022-10-07T00:51:04.060Z,100.00
2022-10-07T00:53:33.260Z,100.00
2022-10-07T00:56:04.517Z,100.00
2022-10-07T00:58:33.168Z,100.00
2022-10-07T01:01:00.511Z,100.00
2022-10-07T01:03:28.302Z,100.00
2022-10-07T01:05:55.371Z,100.00
2022-10-07T01:08:23.364Z,100.00
2022-10-07T01:11:34.194Z,100.00
2022-10-07T01:14:08.057Z,100.00
2022-10-07T01:16:51.101Z,100.00
2022-10-07T01:19:44.448Z,100.00
2022-10-07T01:22:46.651Z,100.00
2022-10-07T01:25:28.475Z,100.00
2022-10-07T01:28:01.116Z,100.00
2022-10-07T01:30:32.079Z,100.00
2022-10-07T01:33:05.302Z,100.00
2022-10-07T01:35:35.752Z,100.00
2022-10-07T01:38:05.732Z,100.00
2022-10-07T01:40:54.597Z,100.00
2022-10-07T01:43:22.567Z,100.00
2022-10-07T01:45:52.237Z,100.00
2022-10-07T01:48:19.203Z,100.00
2022-10-07T01:50:47.388Z,100.00
2022-10-07T01:53:32.576Z,100.00
2022-10-07T01:56:31.784Z,100.00
2022-10-07T01:59:25.595Z,100.00
2022-10-07T02:02:04.212Z,100.00
2022-10-07T02:04:59.318Z,100.00
2022-10-07T02:07:51.443Z,100.00
2022-10-07T02:10:26.960Z,100.00
2022-10-07T02:13:14.175Z,100.00
2022-10-07T02:16:26.235Z,100.00
2022-10-07T02:18:54.190Z,100.00
2022-10-07T02:21:25.542Z,100.00
2022-10-07T02:23:55.036Z,100.00
2022-10-07T02:26:23.448Z,100.00
2022-10-07T02:28:53.036Z,100.00
2022-10-07T02:31:23.160Z,100.00
2022-10-07T02:33:54.032Z,100.00
2022-10-07T02:36:25.649Z,100.00
2022-10-07T02:38:53.339Z,100.00
2022-10-07T02:41:44.245Z,100.00
2022-10-07T02:44:20.446Z,100.00
2022-10-07T02:46:58.643Z,100.00
2022-10-07T02:49:26.830Z,100.00
2022-10-07T02:52:00.360Z,100.00
2022-10-07T02:54:33.403Z,100.00
2022-10-07T02:57:02.867Z,100.00
2022-10-07T02:59:31.326Z,100.00
2022-10-07T03:02:00.787Z,100.00
2022-10-07T03:04:27.898Z,100.00
2022-10-07T03:06:55.774Z,100.00
2022-10-07T03:09:24.987Z,100.00
2022-10-07T03:11:51.896Z,100.00
2022-10-07T03:14:19.160Z,100.00
2022-10-07T03:16:46.584Z,100.00
2022-10-07T03:19:13.467Z,100.00
2022-10-07T03:21:47.663Z,100.00
2022-10-07T03:24:14.666Z,100.00
2022-10-07T03:26:45.453Z,100.00
2022-10-07T03:29:14.074Z,100.00
2022-10-07T03:31:42.449Z,100.00
2022-10-07T03:34:09.754Z,100.00
2022-10-07T03:36:37.336Z,100.00
2022-10-07T03:39:10.801Z,100.00
2022-10-07T03:41:37.842Z,100.00
2022-10-07T03:44:05.760Z,100.00
2022-10-07T03:46:33.688Z,100.00
2022-10-07T03:49:01.491Z,100.00
2022-10-07T03:51:29.419Z,100.00
2022-10-07T03:53:58.256Z,100.00
2022-10-07T03:56:29.630Z,100.00
2022-10-07T03:58:56.636Z,100.00
2022-10-07T04:01:24.996Z,100.00
2022-10-07T04:03:56.432Z,100.00
2022-10-07T04:06:25.678Z,100.00
2022-10-07T04:08:53.930Z,100.00
2022-10-07T04:11:22.002Z,100.00
2022-10-07T04:13:51.895Z,100.00
2022-10-07T04:16:20.086Z,100.00
2022-10-07T04:18:48.092Z,100.00
2022-10-07T04:21:15.740Z,100.00
2022-10-07T04:23:42.791Z,100.00
2022-10-07T04:26:11.315Z,100.00
2022-10-07T04:28:45.805Z,100.00
2022-10-07T04:31:18.013Z,100.00
2022-10-07T04:33:47.867Z,100.00
2022-10-07T04:36:20.576Z,100.00
2022-10-07T04:38:53.182Z,100.00
2022-10-07T04:41:26.903Z,100.00
2022-10-07T04:43:57.842Z,100.00
2022-10-07T04:46:28.719Z,100.00
2022-10-07T04:49:05.223Z,100.00
2022-10-07T04:51:32.588Z,100.00
2022-10-07T04:54:01.168Z,100.00
2022-10-07T04:56:37.811Z,100.00
2022-10-07T04:59:07.731Z,100.00
2022-10-07T05:01:39.650Z,100.00
2022-10-07T05:04:09.140Z,99.76
2022-10-07T05:06:36.056Z,99.30
2022-10-07T05:09:04.503Z,98.89
2022-10-07T05:11:34.800Z,98.02
2022-10-07T05:14:09.229Z,95.96
2022-10-07T05:16:37.066Z,94.43
2022-10-07T05:19:05.407Z,93.61
2022-10-07T05:21:33.905Z,93.53
2022-10-07T05:24:02.017Z,93.24
2022-10-07T05:26:34.437Z,92.87
2022-10-07T05:29:03.535Z,92.15
2022-10-07T05:31:37.585Z,91.35
2022-10-07T05:34:06.180Z,91.28
2022-10-07T05:36:34.059Z,90.38
2022-10-07T05:39:05.608Z,90.16
2022-10-07T05:41:45.587Z,90.52
2022-10-07T05:44:18.012Z,90.90
2022-10-07T05:46:47.179Z,90.57
2022-10-07T05:49:15.900Z,90.24
2022-10-07T05:51:43.086Z,89.46
2022-10-07T05:54:10.109Z,89.18
2022-10-07T05:56:41.375Z,88.33
2022-10-07T05:59:08.861Z,87.76
2022-10-07T06:01:37.768Z,88.05
2022-10-07T06:04:11.827Z,87.47
2022-10-07T06:06:41.662Z,87.44
2022-10-07T06:09:31.203Z,86.89
2022-10-07T06:12:19.925Z,86.70
2022-10-07T06:14:48.461Z,85.60
2022-10-07T06:17:17.583Z,85.17
2022-10-07T06:19:49.108Z,85.07
2022-10-07T06:22:18.529Z,84.67
2022-10-07T06:24:45.815Z,84.62
2022-10-07T06:27:12.919Z,83.55
2022-10-07T06:29:41.093Z,82.74
2022-10-07T06:32:08.620Z,81.57
2022-10-07T06:34:35.780Z,80.70
2022-10-07T06:37:02.844Z,79.98
2022-10-07T06:39:30.375Z,79.36
2022-10-07T06:42:00.176Z,79.56
2022-10-07T06:44:44.103Z,77.86
2022-10-07T06:47:15.941Z,77.58
2022-10-07T06:49:45.536Z,77.40
2022-10-07T06:52:13.134Z,76.36
2022-10-07T06:54:41.363Z,75.62
2022-10-07T06:57:33.193Z,76.01
2022-10-07T06:59:58.160Z,75.35
2022-10-07T07:02:28.215Z,74.43
2022-10-07T07:04:57.665Z,73.42
2022-10-07T07:07:26.337Z,72.93
2022-10-07T07:09:53.853Z,71.89
2022-10-07T07:12:25.598Z,71.21
2022-10-07T07:14:55.446Z,71.30
2022-10-07T07:17:22.421Z,72.28
2022-10-07T07:19:49.452Z,73.05
2022-10-07T07:22:17.660Z,72.65
2022-10-07T07:24:44.673Z,71.98
2022-10-07T07:27:12.790Z,71.47
2022-10-07T07:29:39.780Z,71.83
2022-10-07T07:32:08.349Z,71.83
2022-10-07T07:34:39.288Z,71.64
2022-10-07T07:37:08.583Z,71.69
2022-10-07T07:39:42.806Z,72.91
2022-10-07T07:42:14.204Z,72.82
2022-10-07T07:44:44.408Z,72.95
2022-10-07T07:47:17.254Z,72.92
2022-10-07T07:49:46.140Z,73.49
2022-10-07T07:52:20.600Z,72.94
2022-10-07T07:54:51.931Z,72.84
2022-10-07T07:57:19.723Z,72.74
2022-10-07T07:59:49.920Z,72.70
2022-10-07T08:02:18.634Z,72.55
2022-10-07T08:04:51.646Z,72.31
2022-10-07T08:07:18.683Z,72.19
2022-10-07T08:09:47.656Z,72.40
2022-10-07T08:12:15.152Z,72.34
2022-10-07T08:14:45.964Z,71.91
2022-10-07T08:17:16.180Z,71.66
2022-10-07T08:19:43.389Z,71.49
2022-10-07T08:22:11.812Z,70.79
2022-10-07T08:24:39.460Z,70.82
2022-10-07T08:27:08.909Z,70.26
2022-10-07T08:29:36.019Z,70.03
2022-10-07T08:32:03.383Z,69.92
2022-10-07T08:34:30.419Z,69.99
2022-10-07T08:36:57.381Z,70.33
2022-10-07T08:39:26.764Z,70.03
2022-10-07T08:42:08.803Z,70.37
2022-10-07T08:44:42.104Z,70.36
2022-10-07T08:47:30.513Z,70.17
2022-10-07T08:50:07.943Z,69.83
2022-10-07T08:52:44.605Z,70.22
2022-10-07T08:55:11.757Z,70.54
2022-10-07T08:57:52.510Z,70.52
2022-10-07T09:00:21.521Z,69.75
2022-10-07T09:03:07.624Z,68.81
2022-10-07T09:05:40.570Z,68.62
2022-10-07T09:08:14.929Z,68.69
2022-10-07T09:10:49.743Z,67.90
2022-10-07T09:13:26.316Z,66.92
2022-10-07T09:16:09.734Z,64.50
2022-10-07T09:18:42.991Z,61.93
2022-10-07T09:21:18.990Z,59.93
2022-10-07T09:23:46.951Z,61.91
2022-10-07T09:26:16.301Z,62.58
2022-10-07T09:28:44.092Z,63.40
2022-10-07T09:31:15.686Z,63.01
2022-10-07T09:33:46.214Z,63.31
2022-10-07T09:36:18.352Z,63.07
2022-10-07T09:38:47.933Z,59.44
2022-10-07T09:41:32.345Z,57.64
2022-10-07T09:44:00.540Z,58.84
2022-10-07T09:46:40.465Z,60.05
2022-10-07T09:49:07.972Z,59.70
2022-10-07T09:51:35.496Z,60.51
2022-10-07T09:54:08.807Z,61.36
2022-10-07T09:56:44.844Z,62.14
2022-10-07T09:59:21.404Z,61.70
2022-10-07T10:02:14.575Z,61.10
2022-10-07T10:04:53.312Z,61.48
2022-10-07T10:07:25.135Z,62.09
2022-10-07T10:09:54.137Z,62.42
2022-10-07T10:12:23.846Z,62.79
2022-10-07T10:14:53.094Z,62.72
2022-10-07T10:17:24.431Z,63.09
2022-10-07T10:19:51.527Z,62.74
2022-10-07T10:22:30.387Z,62.74
2022-10-07T10:25:15.865Z,63.11
2022-10-07T10:27:55.460Z,63.22
2022-10-07T10:30:23.460Z,63.17
2022-10-07T10:33:05.721Z,63.65
2022-10-07T10:35:41.964Z,63.60
2022-10-07T10:38:18.858Z,63.54
2022-10-07T10:40:49.293Z,63.42
2022-10-07T10:43:25.864Z,61.86
2022-10-07T10:46:27.602Z,61.56
2022-10-07T10:49:16.401Z,62.31
2022-10-07T10:51:59.631Z,61.56
2022-10-07T10:54:49.305Z,61.38
2022-10-07T10:57:42.652Z,60.87
2022-10-07T11:00:13.927Z,61.45
2022-10-07T11:02:53.073Z,60.41
2022-10-07T11:05:32.221Z,59.37
2022-10-07T11:08:08.008Z,59.20
2022-10-07T11:10:37.894Z,59.69
2022-10-07T11:13:15.793Z,58.63
2022-10-07T11:16:18.140Z,58.83
2022-10-07T11:18:58.432Z,58.97
2022-10-07T11:21:30.788Z,59.17
2022-10-07T11:24:18.088Z,59.25
2022-10-07T11:26:52.365Z,57.04
2022-10-07T11:29:28.574Z,55.04
2022-10-07T11:32:08.379Z,56.08
2022-10-07T11:34:44.104Z,56.51
2022-10-07T11:37:30.062Z,56.90
2022-10-07T11:39:57.399Z,57.01
2022-10-07T11:42:29.147Z,56.83
2022-10-07T11:45:02.800Z,56.18
2022-10-07T11:47:38.371Z,57.34
2022-10-07T11:50:12.986Z,57.66
2022-10-07T11:52:44.314Z,55.57
2022-10-07T11:55:25.067Z,57.66
2022-10-07T11:57:56.192Z,58.59
2022-10-07T12:00:25.927Z,58.99
2022-10-07T12:02:55.288Z,59.39
2022-10-07T12:05:42.679Z,60.64
2022-10-07T12:08:34.406Z,61.35
2022-10-07T12:11:14.705Z,61.41
2022-10-07T12:13:46.246Z,61.11
2022-10-07T12:16:31.634Z,60.59
2022-10-07T12:19:10.362Z,60.78
2022-10-07T12:21:59.606Z,61.32
2022-10-07T12:24:28.216Z,61.04
2022-10-07T12:27:17.756Z,61.25
2022-10-07T12:29:50.930Z,61.31
2022-10-07T12:32:39.474Z,61.90
2022-10-07T12:35:36.259Z,62.19
2022-10-07T12:38:18.519Z,61.54
2022-10-07T12:41:00.545Z,61.01
2022-10-07T12:43:36.913Z,61.50
2022-10-07T12:46:06.435Z,61.42
2022-10-07T12:48:39.558Z,61.82
2022-10-07T12:51:19.522Z,62.15
2022-10-07T12:53:47.740Z,62.10
2022-10-07T12:56:25.381Z,62.28
2022-10-07T12:59:51.072Z,61.80
2022-10-07T13:02:37.340Z,61.83
2022-10-07T13:05:43.720Z,61.90
2022-10-07T13:08:23.103Z,61.58
2022-10-07T13:11:17.755Z,61.14
2022-10-07T13:14:09.009Z,61.48
2022-10-07T13:16:39.052Z,60.86
2022-10-07T13:19:27.961Z,60.83
2022-10-07T13:22:13.906Z,60.86
2022-10-07T13:24:54.232Z,60.94
2022-10-07T13:27:28.714Z,61.08
2022-10-07T13:29:57.632Z,60.87
2022-10-07T13:32:32.507Z,60.86
2022-10-07T13:35:01.453Z,60.81
2022-10-07T13:37:37.818Z,60.71
2022-10-07T13:40:28.348Z,60.91
2022-10-07T13:42:59.342Z,60.89
2022-10-07T13:45:27.858Z,61.24
2022-10-07T13:47:57.321Z,61.80
2022-10-07T13:50:34.348Z,61.60
2022-10-07T13:53:04.170Z,61.91
2022-10-07T13:55:37.804Z,62.14
2022-10-07T13:58:06.897Z,62.15
2022-10-07T14:00:36.141Z,62.52
2022-10-07T14:03:13.383Z,62.25
2022-10-07T14:05:52.014Z,61.87
2022-10-07T14:08:25.093Z,61.65
2022-10-07T14:11:03.628Z,61.65
2022-10-07T14:13:32.324Z,62.03
2022-10-07T14:15:59.767Z,61.47
2022-10-07T14:18:29.832Z,61.66
2022-10-07T14:21:08.374Z,61.89
2022-10-07T14:23:37.825Z,62.02
2022-10-07T14:26:07.109Z,62.28
2022-10-07T14:28:35.511Z,62.38
2022-10-07T14:31:27.143Z,62.86
2022-10-07T14:34:16.059Z,63.43
2022-10-07T14:37:02.139Z,63.82
2022-10-07T14:39:42.664Z,64.35
2022-10-07T14:42:22.112Z,64.86
2022-10-07T14:44:51.055Z,64.83
2022-10-07T14:47:21.173Z,65.31
2022-10-07T14:49:48.811Z,65.75
2022-10-07T14:52:29.095Z,66.13
2022-10-07T14:54:57.702Z,66.44
2022-10-07T14:57:27.320Z,66.59
2022-10-07T14:59:54.954Z,66.85
2022-10-07T15:02:22.451Z,66.93
2022-10-07T15:04:49.541Z,67.12
2022-10-07T15:07:18.314Z,67.53
2022-10-07T15:09:46.556Z,67.38
2022-10-07T15:12:16.610Z,67.72
2022-10-07T15:14:43.770Z,68.07
2022-10-07T15:17:15.009Z,68.04
2022-10-07T15:19:42.086Z,68.55
2022-10-07T15:22:09.094Z,68.75
2022-10-07T15:24:36.056Z,68.83
2022-10-07T15:27:03.269Z,69.37
2022-10-07T15:29:32.567Z,69.75
2022-10-07T15:32:02.440Z,70.09
2022-10-07T15:34:36.335Z,70.45
2022-10-07T15:37:03.347Z,70.57
2022-10-07T15:39:30.349Z,70.95
2022-10-07T15:41:57.275Z,71.27
2022-10-07T15:44:24.299Z,71.59
2022-10-07T15:46:54.010Z,71.85
2022-10-07T15:49:21.123Z,71.82
2022-10-07T15:51:49.088Z,72.41
2022-10-07T15:54:16.649Z,72.61
2022-10-07T15:56:48.717Z,73.04
2022-10-07T15:59:16.441Z,73.53
2022-10-07T16:01:46.635Z,73.80
2022-10-07T16:04:13.837Z,74.26
2022-10-07T16:06:40.820Z,74.73
2022-10-07T16:09:07.815Z,74.87
2022-10-07T16:11:36.409Z,75.16
2022-10-07T16:14:06.982Z,75.31
2022-10-07T16:16:34.076Z,75.59
2022-10-07T16:19:04.820Z,75.93
2022-10-07T16:21:37.123Z,76.51
2022-10-07T16:24:22.016Z,76.87
2022-10-07T16:26:57.333Z,77.20
2022-10-07T16:29:43.281Z,77.52
2022-10-07T16:32:11.639Z,77.60
2022-10-07T16:34:44.508Z,77.87
2022-10-07T16:37:12.368Z,78.40
2022-10-07T16:39:39.634Z,78.56
2022-10-07T16:42:06.797Z,79.17
2022-10-07T16:44:33.847Z,79.13
2022-10-07T16:47:01.521Z,79.22
2022-10-07T16:49:30.371Z,78.85
2022-10-07T16:51:58.074Z,78.55
2022-10-07T16:54:35.648Z,78.61
2022-10-07T16:57:06.021Z,78.79
2022-10-07T16:59:33.207Z,78.83
2022-10-07T17:02:03.582Z,79.20
2022-10-07T17:04:31.527Z,79.38
2022-10-07T17:07:02.149Z,79.41
2022-10-07T17:09:33.532Z,79.69
2022-10-07T17:12:07.699Z,80.64
2022-10-07T17:14:37.269Z,81.19
2022-10-07T17:17:05.454Z,81.44
2022-10-07T17:19:33.834Z,81.99
2022-10-07T17:22:09.522Z,82.30
2022-10-07T17:24:36.766Z,82.74
2022-10-07T17:27:13.444Z,82.95
2022-10-07T17:29:42.642Z,83.46
2022-10-07T17:32:10.565Z,83.67
2022-10-07T17:34:45.301Z,84.17
2022-10-07T17:37:13.310Z,84.22
2022-10-07T17:39:40.419Z,84.90
2022-10-07T17:42:07.427Z,84.86
2022-10-07T17:44:34.593Z,85.11
2022-10-07T17:47:14.036Z,85.11
2022-10-07T17:49:41.145Z,85.68
2022-10-07T17:52:08.137Z,86.49
2022-10-07T17:54:36.102Z,86.90
2022-10-07T17:57:06.399Z,86.53
2022-10-07T17:59:43.453Z,86.93
2022-10-07T18:02:15.642Z,87.15
2022-10-07T18:04:44.868Z,87.33
2022-10-07T18:07:16.928Z,87.72
2022-10-07T18:09:43.882Z,87.61
2022-10-07T18:12:31.884Z,88.13
2022-10-07T18:15:17.839Z,88.11
2022-10-07T18:17:45.541Z,88.32
2022-10-07T18:20:15.542Z,88.71
2022-10-07T18:22:44.367Z,88.94
2022-10-07T18:25:15.101Z,89.00
2022-10-07T18:27:45.511Z,89.55
2022-10-07T18:30:20.754Z,90.07
2022-10-07T18:32:48.063Z,90.37
2022-10-07T18:35:24.187Z,90.63
2022-10-07T18:38:01.621Z,90.71
2022-10-07T18:40:28.709Z,91.21
2022-10-07T18:42:56.710Z,91.11
2022-10-07T18:45:23.802Z,91.24
2022-10-07T18:47:50.995Z,91.14
2022-10-07T18:50:18.276Z,91.05
2022-10-07T18:55:27.629Z,91.31
2022-10-07T18:57:55.470Z,91.69
2022-10-07T19:00:22.590Z,91.60
2022-10-07T19:02:51.299Z,91.40
2022-10-07T19:05:18.389Z,91.28
2022-10-07T19:07:46.125Z,91.48
2022-10-07T19:10:13.236Z,91.42
2022-10-07T19:12:58.979Z,90.94
2022-10-07T19:15:26.256Z,90.49
2022-10-07T19:17:53.217Z,90.00
2022-10-07T19:20:20.484Z,89.43
2022-10-07T19:22:47.577Z,89.05
2022-10-07T19:25:33.328Z,88.83
2022-10-07T19:28:00.757Z,88.93
2022-10-07T19:30:34.204Z,88.94
2022-10-07T19:33:01.264Z,89.03
2022-10-07T19:35:30.179Z,89.22
2022-10-07T19:37:57.125Z,89.45
2022-10-07T19:40:29.513Z,89.27
2022-10-07T19:42:56.495Z,89.44
2022-10-07T19:45:25.972Z,89.74
2022-10-07T19:48:08.356Z,90.54
2022-10-07T19:50:37.684Z,90.78
2022-10-07T19:53:05.329Z,91.40
2022-10-07T19:55:33.590Z,91.51
2022-10-07T19:58:03.544Z,92.23
2022-10-07T20:00:33.372Z,92.57
2022-10-07T20:03:00.353Z,92.76
2022-10-07T20:05:29.218Z,92.96
2022-10-07T20:07:57.281Z,93.38
2022-10-07T20:10:25.731Z,93.97
2022-10-07T20:12:56.684Z,93.71
2022-10-07T20:15:23.803Z,93.89
2022-10-07T20:17:50.877Z,94.45
2022-10-07T20:20:21.186Z,94.76
2022-10-07T20:22:49.530Z,94.97
2022-10-07T20:25:19.127Z,95.04
2022-10-07T20:27:46.457Z,95.44
2022-10-07T20:30:17.838Z,95.56
2022-10-07T20:32:45.640Z,95.55
2022-10-07T20:35:12.931Z,95.76
2022-10-07T20:37:39.883Z,96.23
2022-10-07T20:40:26.166Z,96.28
2022-10-07T20:42:55.646Z,96.66
2022-10-07T20:45:23.187Z,96.85
2022-10-07T20:47:50.108Z,97.09
2022-10-07T20:50:17.110Z,97.62
2022-10-07T20:52:45.406Z,97.71
2022-10-07T20:55:14.370Z,97.38
2022-10-07T20:57:41.929Z,96.99
2022-10-07T21:00:16.332Z,97.41
2022-10-07T21:02:44.656Z,97.77
2022-10-07T21:05:12.153Z,98.05
2022-10-07T21:07:40.475Z,98.43
2022-10-07T21:10:07.603Z,98.62
2022-10-07T21:12:34.663Z,98.85
2022-10-07T21:15:03.389Z,98.54
2022-10-07T21:17:31.296Z,99.09
2022-10-07T21:19:58.302Z,98.91
2022-10-07T21:22:25.784Z,99.11
2022-10-07T21:24:52.751Z,98.80
2022-10-07T21:27:20.116Z,98.53
2022-10-07T21:29:48.809Z,98.35
2022-10-07T21:32:15.812Z,98.20
2022-10-07T21:34:43.768Z,98.38
2022-10-07T21:37:13.509Z,98.59
2022-10-07T21:39:40.421Z,98.99
2022-10-07T21:42:07.410Z,99.07
2022-10-07T21:44:35.763Z,99.21
2022-10-07T21:47:04.929Z,99.40
2022-10-07T21:49:31.901Z,99.76
2022-10-07T21:51:59.119Z,99.55
2022-10-07T21:54:26.349Z,99.74
2022-10-07T21:56:53.274Z,99.69
2022-10-07T21:59:20.985Z,99.68
2022-10-07T22:01:47.933Z,99.75
2022-10-07T22:04:19.217Z,99.53
2022-10-07T22:07:04.783Z,99.83
2022-10-07T22:09:31.929Z,100.00
2022-10-07T22:11:58.864Z,100.00
2022-10-07T22:14:25.828Z,100.00
2022-10-07T22:16:57.324Z,100.00
2022-10-07T22:19:25.304Z,100.00
2022-10-07T22:21:52.386Z,100.00
2022-10-07T22:24:19.287Z,100.00
2022-10-07T22:26:47.372Z,100.00
2022-10-07T22:29:16.323Z,100.00
2022-10-07T22:31:43.703Z,100.00
2022-10-07T22:34:31.004Z,100.00
2022-10-07T22:36:58.300Z,100.00
2022-10-07T22:39:26.376Z,100.00
2022-10-07T22:41:53.791Z,100.00
2022-10-07T22:44:20.810Z,100.00
2022-10-07T22:46:47.821Z,100.00
2022-10-07T22:49:15.278Z,100.00
2022-10-07T22:51:43.192Z,100.00
2022-10-07T22:54:13.915Z,100.00
2022-10-07T22:56:42.102Z,100.00
2022-10-07T22:59:09.279Z,100.00
2022-10-07T23:01:39.949Z,100.00
2022-10-07T23:04:06.911Z,100.00
2022-10-07T23:06:36.515Z,100.00
2022-10-07T23:09:04.092Z,100.00
2022-10-07T23:11:31.362Z,100.00
2022-10-07T23:13:58.558Z,100.00
2022-10-07T23:16:29.624Z,100.00
2022-10-07T23:18:58.295Z,100.00
2022-10-07T23:21:27.834Z,100.00
2022-10-07T23:24:02.876Z,100.00
2022-10-07T23:26:33.593Z,100.00
2022-10-07T23:29:01.059Z,100.00
2022-10-07T23:31:29.450Z,100.00
2022-10-07T23:33:57.342Z,100.00
2022-10-07T23:36:25.565Z,100.00
2022-10-07T23:38:52.701Z,100.00
2022-10-07T23:41:21.953Z,100.00
2022-10-07T23:43:50.605Z,100.00
2022-10-07T23:46:22.042Z,100.00
2022-10-07T23:48:50.121Z,100.00
2022-10-07T23:51:22.643Z,100.00
2022-10-07T23:53:50.314Z,100.00
2022-10-07T23:56:18.743Z,100.00
2022-10-07T23:58:46.143Z,100.00
